createdAt,value
2019-03-28T00:00:33.971Z,5.85
2019-03-28T00:03:03.255Z,5.15
2019-03-28T00:05:33.101Z,5.85
2019-03-28T00:08:03.223Z,5.92
2019-03-28T00:10:32.807Z,6.40
2019-03-28T00:13:02.071Z,6.40
2019-03-28T00:15:31.318Z,5.80
2019-03-28T00:18:00.558Z,6.50
2019-03-28T00:20:29.851Z,6.00
2019-03-28T00:23:00.732Z,6.25
2019-03-28T00:25:29.977Z,5.85
2019-03-28T00:27:59.276Z,6.47
2019-03-28T00:30:28.720Z,6.22
2019-03-28T00:32:59.035Z,6.80
2019-03-28T00:35:28.279Z,6.72
2019-03-28T00:38:00.087Z,6.45
2019-03-28T00:40:30.213Z,6.42
2019-03-28T00:43:00.301Z,6.47
2019-03-28T00:45:29.673Z,6.15
2019-03-28T00:47:59.034Z,5.92
2019-03-28T00:50:28.321Z,6.05
2019-03-28T00:52:57.622Z,5.92
2019-03-28T00:55:26.869Z,6.17
2019-03-28T00:57:56.233Z,5.90
2019-03-28T01:00:25.502Z,5.70
2019-03-28T01:02:54.814Z,6.28
2019-03-28T01:05:24.111Z,5.92
2019-03-28T01:07:53.353Z,6.28
2019-03-28T01:10:22.504Z,6.67
2019-03-28T01:12:51.742Z,6.03
2019-03-28T01:15:20.948Z,6.70
2019-03-28T01:18:10.638Z,6.65
2019-03-28T01:20:39.901Z,6.08
2019-03-28T01:23:10.131Z,6.85
2019-03-28T01:25:58.853Z,6.37
2019-03-28T01:28:28.114Z,6.67
2019-03-28T01:30:57.417Z,7.03
2019-03-28T01:33:26.664Z,7.75
2019-03-28T01:35:55.848Z,6.62
2019-03-28T01:38:25.111Z,7.30
2019-03-28T01:40:54.346Z,6.55
2019-03-28T01:43:23.568Z,7.15
2019-03-28T01:46:05.189Z,6.72
2019-03-28T01:48:34.439Z,7.10
2019-03-28T01:51:16.256Z,6.92
2019-03-28T01:53:45.566Z,6.70
2019-03-28T01:56:14.868Z,6.17
2019-03-28T01:58:44.240Z,6.72
2019-03-28T02:01:13.477Z,6.30
2019-03-28T02:03:42.699Z,5.83
2019-03-28T02:06:11.966Z,6.85
2019-03-28T02:08:41.459Z,6.33
2019-03-28T02:11:23.623Z,7.05
2019-03-28T02:13:52.915Z,7.20
2019-03-28T02:16:22.206Z,7.22
2019-03-28T02:18:51.428Z,6.70
2019-03-28T02:21:20.656Z,6.78
2019-03-28T02:23:49.990Z,6.70
2019-03-28T02:26:19.355Z,6.85
2019-03-28T02:28:48.589Z,6.95
2019-03-28T02:31:17.870Z,6.25
2019-03-28T02:34:06.733Z,6.20
2019-03-28T02:36:36.121Z,6.67
2019-03-28T02:39:06.350Z,6.15
2019-03-28T02:41:35.717Z,6.53
2019-03-28T02:44:05.003Z,5.45
2019-03-28T02:46:34.376Z,5.40
2019-03-28T02:49:03.724Z,5.28
2019-03-28T02:51:32.979Z,5.08
2019-03-28T02:54:02.370Z,4.90
2019-03-28T02:56:31.624Z,4.80
2019-03-28T02:59:00.795Z,4.92
2019-03-28T03:01:30.454Z,4.92
2019-03-28T03:04:00.154Z,4.70
2019-03-28T03:06:29.411Z,5.10
2019-03-28T03:08:59.625Z,4.70
2019-03-28T03:11:29.201Z,4.72
2019-03-28T03:13:58.503Z,5.03
2019-03-28T03:16:27.811Z,4.90
2019-03-28T03:18:57.064Z,5.40
2019-03-28T03:21:26.295Z,5.35
2019-03-28T03:23:55.548Z,4.95
2019-03-28T03:26:24.753Z,4.92
2019-03-28T03:28:54.061Z,5.03
2019-03-28T03:31:24.978Z,5.12
2019-03-28T03:33:54.167Z,5.05
2019-03-28T03:36:27.969Z,4.65
2019-03-28T03:38:57.218Z,5.33
2019-03-28T03:41:26.534Z,4.80
2019-03-28T03:43:56.949Z,4.92
2019-03-28T03:46:26.369Z,5.10
2019-03-28T03:48:56.991Z,4.97
2019-03-28T03:51:26.203Z,5.00
2019-03-28T03:53:55.362Z,5.33
2019-03-28T03:56:24.679Z,5.33
2019-03-28T03:58:54.167Z,4.85
2019-03-28T04:01:23.467Z,4.90
2019-03-28T04:03:52.915Z,5.03
2019-03-28T04:06:23.516Z,5.45
2019-03-28T04:08:53.796Z,4.85
2019-03-28T04:11:23.610Z,5.40
2019-03-28T04:13:53.087Z,4.67
2019-03-28T04:16:22.554Z,4.65
2019-03-28T04:18:51.982Z,5.50
2019-03-28T04:21:34.223Z,5.50
2019-03-28T04:24:03.500Z,5.40
2019-03-28T04:26:32.802Z,5.42
2019-03-28T04:29:02.106Z,4.95
2019-03-28T04:31:31.444Z,5.58
2019-03-28T04:34:06.940Z,5.58
2019-03-28T04:36:31.710Z,5.45
2019-03-28T04:39:00.996Z,5.35
2019-03-28T04:41:31.756Z,5.30
2019-03-28T04:44:01.299Z,6.08
2019-03-28T04:46:30.698Z,5.53
2019-03-28T04:49:00.032Z,5.28
2019-03-28T04:51:30.461Z,5.62
2019-03-28T04:53:59.840Z,5.90
2019-03-28T04:56:29.156Z,5.53
2019-03-28T04:58:58.569Z,5.87
2019-03-28T05:02:01.057Z,5.85
2019-03-28T05:04:20.952Z,6.28
2019-03-28T05:06:50.326Z,6.30
2019-03-28T05:09:19.875Z,6.45
2019-03-28T05:11:49.190Z,6.90
2019-03-28T05:14:18.750Z,5.90
2019-03-28T05:16:48.456Z,6.62
2019-03-28T05:19:19.517Z,6.42
2019-03-28T05:21:48.929Z,6.40
2019-03-28T05:24:18.277Z,6.58
2019-03-28T05:26:47.726Z,6.50
2019-03-28T05:29:16.989Z,6.80
2019-03-28T05:31:46.408Z,7.03
2019-03-28T05:34:16.222Z,7.40
2019-03-28T05:36:47.177Z,6.80
2019-03-28T05:39:17.720Z,6.47
2019-03-28T05:41:47.052Z,7.70
2019-03-28T05:44:16.405Z,7.35
2019-03-28T05:46:45.915Z,6.78
2019-03-28T05:49:15.185Z,6.33
2019-03-28T05:51:44.561Z,7.20
2019-03-28T05:54:13.813Z,7.08
2019-03-28T05:56:44.201Z,6.75
2019-03-28T05:59:13.548Z,7.05
2019-03-28T06:01:42.844Z,7.20
2019-03-28T06:04:12.019Z,6.65
2019-03-28T06:06:42.749Z,7.37
2019-03-28T06:09:12.132Z,7.25
2019-03-28T06:11:41.568Z,7.58
2019-03-28T06:14:10.903Z,7.05
2019-03-28T06:16:40.117Z,7.22
2019-03-28T06:19:09.303Z,7.40
2019-03-28T06:21:39.757Z,6.40
2019-03-28T06:24:10.518Z,6.58
2019-03-28T06:26:39.825Z,6.12
2019-03-28T06:29:09.101Z,5.33
2019-03-28T06:31:38.398Z,5.20
2019-03-28T06:34:07.687Z,5.90
2019-03-28T06:36:36.973Z,5.40
2019-03-28T06:39:06.434Z,5.10
2019-03-28T06:41:35.808Z,5.50
2019-03-28T06:44:05.037Z,5.12
2019-03-28T06:46:34.663Z,5.47
2019-03-28T06:49:03.982Z,5.00
2019-03-28T06:51:33.293Z,9.93
2019-03-28T06:54:02.571Z,34.92
2019-03-28T06:56:31.957Z,15.68
2019-03-28T06:59:01.193Z,6.50
2019-03-28T07:01:30.580Z,5.55
2019-03-28T07:03:59.956Z,5.10
2019-03-28T07:06:29.250Z,5.22
2019-03-28T07:08:58.650Z,5.33
2019-03-28T07:11:29.027Z,4.90
2019-03-28T07:13:58.296Z,5.60
2019-03-28T07:16:27.660Z,5.50
2019-03-28T07:18:56.892Z,21.27
2019-03-28T07:21:26.112Z,10.93
2019-03-28T07:23:55.378Z,7.12
2019-03-28T07:26:24.746Z,6.78
2019-03-28T07:28:54.418Z,5.42
2019-03-28T07:31:23.702Z,5.40
2019-03-28T07:33:52.924Z,5.33
2019-03-28T07:36:22.212Z,5.47
2019-03-28T07:39:04.006Z,5.42
2019-03-28T07:41:33.468Z,12.37
2019-03-28T07:44:02.802Z,7.42
2019-03-28T07:46:32.103Z,5.50
2019-03-28T07:49:01.435Z,5.30
2019-03-28T07:51:30.742Z,5.60
2019-03-28T07:54:00.173Z,5.12
2019-03-28T07:56:29.523Z,4.60
2019-03-28T07:58:59.916Z,5.90
2019-03-28T08:01:29.202Z,6.60
2019-03-28T08:03:58.500Z,6.40
2019-03-28T08:06:27.943Z,5.20
2019-03-28T08:08:57.125Z,5.30
2019-03-28T08:11:26.335Z,4.50
2019-03-28T08:13:55.655Z,4.80
2019-03-28T08:16:24.912Z,4.33
2019-03-28T08:18:54.125Z,4.85
2019-03-28T08:21:23.357Z,5.15
2019-03-28T08:23:52.674Z,5.20
2019-03-28T08:26:22.299Z,6.55
2019-03-28T08:28:51.553Z,5.42
2019-03-28T08:31:21.206Z,6.47
2019-03-28T08:33:52.387Z,6.22
2019-03-28T08:36:21.934Z,5.47
2019-03-28T08:38:51.149Z,5.58
2019-03-28T08:41:20.464Z,5.37
2019-03-28T08:43:49.763Z,5.75
2019-03-28T08:46:19.065Z,9.75
2019-03-28T08:48:48.378Z,6.15
2019-03-28T08:51:17.726Z,4.90
2019-03-28T08:53:47.084Z,4.60
2019-03-28T08:56:35.905Z,4.90
2019-03-28T08:59:05.205Z,5.50
2019-03-28T09:01:34.490Z,5.30
2019-03-28T09:04:03.732Z,5.33
2019-03-28T09:06:33.071Z,5.62
2019-03-28T09:09:02.391Z,5.83
2019-03-28T09:11:33.149Z,5.30
2019-03-28T09:14:02.454Z,4.72
2019-03-28T09:16:31.611Z,5.95
2019-03-28T09:19:00.870Z,5.25
2019-03-28T09:21:30.268Z,5.20
2019-03-28T09:23:59.609Z,5.50
2019-03-28T09:26:28.800Z,5.62
2019-03-28T09:28:58.124Z,5.00
2019-03-28T09:31:27.497Z,5.28
2019-03-28T09:33:56.734Z,5.00
2019-03-28T09:36:25.997Z,5.40
2019-03-28T09:38:55.252Z,4.80
2019-03-28T09:41:24.434Z,4.67
2019-03-28T09:43:55.655Z,4.90
2019-03-28T09:46:24.528Z,5.10
2019-03-28T09:48:53.737Z,5.70
2019-03-28T09:51:23.028Z,5.37
2019-03-28T09:53:52.319Z,5.45
2019-03-28T09:56:21.536Z,6.00
2019-03-28T09:58:50.675Z,6.10
2019-03-28T10:01:20.001Z,5.65
2019-03-28T10:03:49.228Z,5.25
2019-03-28T10:06:18.545Z,6.60
2019-03-28T10:08:47.848Z,6.20
2019-03-28T10:11:17.213Z,6.58
2019-03-28T10:13:46.514Z,6.28
2019-03-28T10:16:15.726Z,6.78
2019-03-28T10:18:45.046Z,6.25
2019-03-28T10:21:14.396Z,6.62
2019-03-28T10:23:44.359Z,6.72
2019-03-28T10:26:13.838Z,6.65
2019-03-28T10:28:43.084Z,6.45
2019-03-28T10:31:16.782Z,6.95
2019-03-28T10:33:43.252Z,6.72
2019-03-28T10:36:12.506Z,6.97
2019-03-28T10:38:41.791Z,6.30
2019-03-28T10:41:11.050Z,6.67
2019-03-28T10:43:40.436Z,6.12
2019-03-28T10:46:09.780Z,5.58
2019-03-28T10:48:39.082Z,6.35
2019-03-28T10:51:08.314Z,6.40
2019-03-28T10:53:37.608Z,5.78
2019-03-28T10:56:20.580Z,6.20
2019-03-28T10:58:38.096Z,6.08
2019-03-28T11:01:47.010Z,6.05
2019-03-28T11:03:57.624Z,5.55
2019-03-28T11:06:26.923Z,6.15
2019-03-28T11:08:56.143Z,5.72
2019-03-28T11:11:25.296Z,5.55
2019-03-28T11:13:54.520Z,6.50
2019-03-28T11:16:23.835Z,6.55
2019-03-28T11:18:53.042Z,5.67
2019-03-28T11:21:22.334Z,6.92
2019-03-28T11:23:51.688Z,6.90
2019-03-28T11:26:20.958Z,5.80
2019-03-28T11:28:50.252Z,5.33
2019-03-28T11:31:19.573Z,6.22
2019-03-28T11:33:48.870Z,5.95
2019-03-28T11:36:18.134Z,5.65
2019-03-28T11:38:47.485Z,6.10
2019-03-28T11:41:16.767Z,6.20
2019-03-28T11:43:46.145Z,5.83
2019-03-28T11:46:16.925Z,5.15
2019-03-28T11:48:46.135Z,6.08
2019-03-28T11:51:15.440Z,11.40
2019-03-28T11:53:44.785Z,5.85
2019-03-28T11:56:14.079Z,6.30
2019-03-28T11:58:43.459Z,5.70
2019-03-28T12:01:12.790Z,5.83
2019-03-28T12:03:42.113Z,5.85
2019-03-28T12:06:11.414Z,5.62
2019-03-28T12:08:40.753Z,5.42
2019-03-28T12:11:10.120Z,8.30
2019-03-28T12:13:44.932Z,6.28
2019-03-28T12:16:12.528Z,5.20
2019-03-28T12:18:41.787Z,5.33
2019-03-28T12:21:11.007Z,8.18
2019-03-28T12:23:40.297Z,7.80
2019-03-28T12:26:10.864Z,7.08
2019-03-28T12:28:40.193Z,5.97
2019-03-28T12:31:09.482Z,5.62
2019-03-28T12:33:38.714Z,5.72
2019-03-28T12:36:07.885Z,5.40
2019-03-28T12:38:37.028Z,6.25
2019-03-28T12:41:06.328Z,5.58
2019-03-28T12:43:35.665Z,6.62
2019-03-28T12:46:04.967Z,6.10
2019-03-28T12:48:34.259Z,5.10
2019-03-28T12:51:03.559Z,4.92
2019-03-28T12:53:32.799Z,5.67
2019-03-28T12:56:02.000Z,5.17
2019-03-28T12:58:31.243Z,5.70
2019-03-28T13:01:00.404Z,5.58
2019-03-28T13:03:39.585Z,5.83
2019-03-28T13:06:00.648Z,5.60
2019-03-28T13:08:29.887Z,5.00
2019-03-28T13:10:59.174Z,5.25
2019-03-28T13:13:29.416Z,4.90
2019-03-28T13:15:58.727Z,5.05
2019-03-28T13:18:27.973Z,4.47
2019-03-28T13:20:57.205Z,5.15
2019-03-28T13:23:26.596Z,5.47
2019-03-28T13:25:55.887Z,4.60
2019-03-28T13:28:25.220Z,5.10
2019-03-28T13:30:54.594Z,4.87
2019-03-28T13:33:24.079Z,4.90
2019-03-28T13:35:53.294Z,4.53
2019-03-28T13:38:22.542Z,5.03
2019-03-28T13:40:51.913Z,4.72
2019-03-28T13:43:21.227Z,5.12
2019-03-28T13:45:50.576Z,4.72
2019-03-28T13:48:20.812Z,4.72
2019-03-28T13:50:50.188Z,5.08
2019-03-28T13:53:19.353Z,6.70
2019-03-28T13:55:48.688Z,4.60
2019-03-28T13:58:17.894Z,4.78
2019-03-28T14:00:47.287Z,5.60
2019-03-28T14:03:17.620Z,7.05
2019-03-28T14:05:46.839Z,5.55
2019-03-28T14:08:16.129Z,4.37
2019-03-28T14:10:45.447Z,3.80
2019-03-28T14:13:14.745Z,3.50
2019-03-28T14:15:44.000Z,3.22
2019-03-28T14:18:13.382Z,3.50
2019-03-28T14:20:42.733Z,3.80
2019-03-28T14:23:12.081Z,4.00
2019-03-28T14:25:41.321Z,3.17
2019-03-28T14:28:10.701Z,3.05
2019-03-28T14:30:40.979Z,2.85
2019-03-28T14:33:14.162Z,2.90
2019-03-28T14:35:41.527Z,2.80
2019-03-28T14:38:10.849Z,2.98
2019-03-28T14:40:40.163Z,3.00
2019-03-28T14:43:10.779Z,3.62
2019-03-28T14:45:40.273Z,3.58
2019-03-28T14:48:09.496Z,3.45
2019-03-28T14:50:45.123Z,3.45
2019-03-28T14:53:14.347Z,3.33
2019-03-28T14:55:43.553Z,3.50
2019-03-28T14:58:13.078Z,3.50
2019-03-28T15:00:47.686Z,3.33
2019-03-28T15:03:27.205Z,3.87
2019-03-28T15:05:49.491Z,3.20
2019-03-28T15:08:18.873Z,3.92
2019-03-28T15:10:48.367Z,3.80
2019-03-28T15:13:17.609Z,3.80
2019-03-28T15:15:46.879Z,3.92
2019-03-28T15:18:16.253Z,4.05
2019-03-28T15:20:45.480Z,4.70
2019-03-28T15:23:14.724Z,4.75
2019-03-28T15:25:43.958Z,4.50
2019-03-28T15:28:13.380Z,4.20
2019-03-28T15:30:42.800Z,4.47
2019-03-28T15:33:12.223Z,4.75
2019-03-28T15:35:41.931Z,4.70
2019-03-28T15:38:13.658Z,4.80
2019-03-28T15:40:44.183Z,5.42
2019-03-28T15:43:13.566Z,5.60
2019-03-28T15:45:43.933Z,4.95
2019-03-28T15:48:13.242Z,5.00
2019-03-28T15:50:42.539Z,5.35
2019-03-28T15:53:11.978Z,4.62
2019-03-28T15:55:41.341Z,4.85
2019-03-28T15:58:22.417Z,4.83
2019-03-28T16:00:41.904Z,5.22
2019-03-28T16:03:11.225Z,7.22
2019-03-28T16:05:40.548Z,6.37
2019-03-28T16:08:09.950Z,5.80
2019-03-28T16:10:39.246Z,5.30
2019-03-28T16:13:08.624Z,6.47
2019-03-28T16:15:37.911Z,5.55
2019-03-28T16:18:07.178Z,5.80
2019-03-28T16:20:36.462Z,5.60
2019-03-28T16:23:08.123Z,6.10
2019-03-28T16:25:37.328Z,6.25
2019-03-28T16:28:06.614Z,5.87
2019-03-28T16:30:39.023Z,6.20
2019-03-28T16:33:09.417Z,6.28
2019-03-28T16:35:38.634Z,6.62
2019-03-28T16:38:07.853Z,6.75
2019-03-28T16:40:37.059Z,6.03
2019-03-28T16:43:07.510Z,6.47
2019-03-28T16:45:36.997Z,6.08
2019-03-28T16:48:06.272Z,6.22
2019-03-28T16:50:35.559Z,6.45
2019-03-28T16:53:04.906Z,6.35
2019-03-28T16:55:34.349Z,6.83
2019-03-28T16:58:03.714Z,6.72
2019-03-28T17:00:35.919Z,6.53
2019-03-28T17:03:05.616Z,9.00
2019-03-28T17:05:34.930Z,7.53
2019-03-28T17:08:05.314Z,9.08
2019-03-28T17:10:48.083Z,9.20
2019-03-28T17:13:17.382Z,8.53
2019-03-28T17:15:46.621Z,10.50
2019-03-28T17:18:18.857Z,7.70
2019-03-28T17:20:48.187Z,7.22
2019-03-28T17:23:17.449Z,6.92
2019-03-28T17:25:46.705Z,6.62
2019-03-28T17:28:15.938Z,7.55
2019-03-28T17:30:45.229Z,6.78
2019-03-28T17:33:17.634Z,7.42
2019-03-28T17:35:45.620Z,6.72
2019-03-28T17:38:15.018Z,7.20
2019-03-28T17:40:44.409Z,7.83
2019-03-28T17:43:13.732Z,6.67
2019-03-28T17:45:50.169Z,8.28
2019-03-28T17:48:19.486Z,7.47
2019-03-28T17:50:48.941Z,7.25
2019-03-28T17:53:18.180Z,7.35
2019-03-28T17:55:47.442Z,7.97
2019-03-28T17:58:16.634Z,7.00
2019-03-28T18:00:47.031Z,7.47
2019-03-28T18:03:16.245Z,7.65
2019-03-28T18:05:57.522Z,7.78
2019-03-28T18:08:16.466Z,8.10
2019-03-28T18:10:45.779Z,8.78
2019-03-28T18:13:15.073Z,8.85
2019-03-28T18:15:44.358Z,8.75
2019-03-28T18:18:13.624Z,9.25
2019-03-28T18:20:42.856Z,11.45
2019-03-28T18:23:12.152Z,8.75
2019-03-28T18:25:42.821Z,8.90
2019-03-28T18:28:12.149Z,9.28
2019-03-28T18:30:41.432Z,11.68
2019-03-28T18:33:11.254Z,10.95
2019-03-28T18:35:40.591Z,9.80
2019-03-28T18:38:10.790Z,9.68
2019-03-28T18:40:41.664Z,10.65
2019-03-28T18:43:11.216Z,10.45
2019-03-28T18:45:40.654Z,10.40
2019-03-28T18:48:11.271Z,9.65
2019-03-28T18:50:41.445Z,10.45
2019-03-28T18:53:11.161Z,10.68
2019-03-28T18:55:40.539Z,10.50
2019-03-28T18:58:11.025Z,10.18
2019-03-28T19:00:40.433Z,11.97
2019-03-28T19:03:10.105Z,10.72
2019-03-28T19:05:39.518Z,12.00
2019-03-28T19:08:08.985Z,17.15
2019-03-28T19:10:38.418Z,11.70
2019-03-28T19:13:08.138Z,12.00
2019-03-28T19:15:38.640Z,12.40
2019-03-28T19:18:08.164Z,15.95
2019-03-28T19:20:56.933Z,12.10
2019-03-28T19:23:26.230Z,12.55
2019-03-28T19:25:55.717Z,12.28
2019-03-28T19:28:29.014Z,12.53
2019-03-28T19:30:56.052Z,12.40
2019-03-28T19:33:25.324Z,11.90
2019-03-28T19:35:55.110Z,11.63
2019-03-28T19:38:32.599Z,12.03
2019-03-28T19:41:01.879Z,11.75
2019-03-28T19:43:31.292Z,12.53
2019-03-28T19:46:00.645Z,12.33
2019-03-28T19:48:30.085Z,11.30
2019-03-28T19:50:59.454Z,12.82
2019-03-28T19:53:28.905Z,12.78
2019-03-28T19:55:58.193Z,12.78
2019-03-28T19:58:27.499Z,12.82
2019-03-28T20:00:56.938Z,12.70
2019-03-28T20:03:26.293Z,13.32
2019-03-28T20:05:55.642Z,13.18
2019-03-28T20:08:26.245Z,12.65
2019-03-28T20:10:55.886Z,13.62
2019-03-28T20:13:25.279Z,13.35
2019-03-28T20:15:54.635Z,12.85
2019-03-28T20:18:23.952Z,12.98
2019-03-28T20:20:55.640Z,12.23
2019-03-28T20:23:25.440Z,12.55
2019-03-28T20:25:54.808Z,12.30
2019-03-28T20:28:26.728Z,12.18
2019-03-28T20:30:56.207Z,13.32
2019-03-28T20:33:26.518Z,12.78
2019-03-28T20:36:18.854Z,13.03
2019-03-28T20:38:27.028Z,12.70
2019-03-28T20:40:58.531Z,12.98
2019-03-28T20:43:27.477Z,13.03
2019-03-28T20:45:56.862Z,13.53
2019-03-28T20:48:26.221Z,12.85
2019-03-28T20:50:55.555Z,14.20
2019-03-28T20:53:24.914Z,13.25
2019-03-28T20:55:54.245Z,13.20
2019-03-28T20:58:23.559Z,12.82
2019-03-28T21:00:52.965Z,13.22
2019-03-28T21:03:22.204Z,14.60
2019-03-28T21:05:51.500Z,13.80
2019-03-28T21:08:20.819Z,13.15
2019-03-28T21:10:50.093Z,12.93
2019-03-28T21:13:19.477Z,12.82
2019-03-28T21:15:48.924Z,12.85
2019-03-28T21:18:18.240Z,12.50
2019-03-28T21:20:47.564Z,12.60
2019-03-28T21:23:16.937Z,12.50
2019-03-28T21:26:05.891Z,11.40
2019-03-28T21:28:46.533Z,13.03
2019-03-28T21:31:06.453Z,12.35
2019-03-28T21:33:39.000Z,11.95
2019-03-28T21:36:08.753Z,11.10
2019-03-28T21:38:38.319Z,11.40
2019-03-28T21:41:07.644Z,12.13
2019-03-28T21:43:37.560Z,11.22
2019-03-28T21:46:07.068Z,11.45
2019-03-28T21:48:40.294Z,11.83
2019-03-28T21:51:11.561Z,13.05
2019-03-28T21:53:45.787Z,11.15
2019-03-28T21:56:15.073Z,11.33
2019-03-28T21:58:46.308Z,12.10
2019-03-28T22:01:15.620Z,11.75
2019-03-28T22:03:44.996Z,12.60
2019-03-28T22:06:14.313Z,11.73
2019-03-28T22:08:43.559Z,11.93
2019-03-28T22:11:15.400Z,12.45
2019-03-28T22:13:44.770Z,11.95
2019-03-28T22:16:14.033Z,11.00
2019-03-28T22:18:43.336Z,11.03
2019-03-28T22:21:32.156Z,10.65
2019-03-28T22:24:02.404Z,9.68
2019-03-28T22:26:31.742Z,9.35
2019-03-28T22:29:01.035Z,9.80
2019-03-28T22:31:30.890Z,10.00
2019-03-28T22:34:00.256Z,9.80
2019-03-28T22:36:29.450Z,9.53
2019-03-28T22:38:58.608Z,9.98
2019-03-28T22:41:27.889Z,10.10
2019-03-28T22:43:57.053Z,9.85
2019-03-28T22:46:26.259Z,9.63
2019-03-28T22:48:55.496Z,10.03
2019-03-28T22:51:24.693Z,9.73
2019-03-28T22:53:53.873Z,8.80
2019-03-28T22:56:23.621Z,9.23
2019-03-28T22:58:53.030Z,8.73
2019-03-28T23:01:22.260Z,8.88
2019-03-28T23:03:53.262Z,9.35
2019-03-28T23:06:23.036Z,9.08
2019-03-28T23:08:52.705Z,8.88
2019-03-28T23:11:22.114Z,8.85
2019-03-28T23:13:52.850Z,8.50
2019-03-28T23:16:22.715Z,9.00
2019-03-28T23:18:52.434Z,8.75
2019-03-28T23:21:22.015Z,8.23
2019-03-28T23:23:51.831Z,8.05
2019-03-28T23:26:21.166Z,8.23
2019-03-28T23:28:50.485Z,7.50
2019-03-28T23:31:20.169Z,8.33
2019-03-28T23:33:50.454Z,8.10
2019-03-28T23:36:21.553Z,8.65
2019-03-28T23:38:53.367Z,8.15
2019-03-28T23:41:24.168Z,8.35
2019-03-28T23:43:53.720Z,7.50
2019-03-28T23:46:23.077Z,8.38
2019-03-28T23:48:52.457Z,7.95
2019-03-28T23:51:21.677Z,8.53
2019-03-28T23:53:50.997Z,8.10
2019-03-28T23:56:20.320Z,7.90
2019-03-28T23:58:49.685Z,7.50
